createdAt,value
2019-03-12T00:00:12.645Z,5.80
2019-03-12T00:02:40.337Z,5.80
2019-03-12T00:05:08.067Z,5.80
2019-03-12T00:07:35.724Z,5.60
2019-03-12T00:10:03.853Z,5.50
2019-03-12T00:12:31.513Z,5.50
2019-03-12T00:15:00.375Z,5.50
2019-03-12T00:17:28.069Z,5.60
2019-03-12T00:19:55.784Z,5.60
2019-03-12T00:22:23.398Z,5.60
2019-03-12T00:24:51.030Z,5.60
2019-03-12T00:27:18.661Z,5.50
2019-03-12T00:29:46.288Z,5.50
2019-03-12T00:32:13.868Z,5.50
2019-03-12T00:34:41.836Z,5.50
2019-03-12T00:37:09.488Z,5.50
2019-03-12T00:39:37.193Z,5.60
2019-03-12T00:42:04.793Z,5.60
2019-03-12T00:44:32.561Z,5.80
2019-03-12T00:47:19.559Z,5.70
2019-03-12T00:49:59.471Z,5.80
2019-03-12T00:52:39.978Z,5.60
2019-03-12T00:55:19.948Z,5.60
2019-03-12T00:58:00.205Z,5.50
2019-03-12T01:00:40.354Z,5.40
2019-03-12T01:03:20.883Z,5.40
2019-03-12T01:06:01.726Z,5.40
2019-03-12T01:08:41.793Z,5.60
2019-03-12T01:11:21.916Z,5.30
2019-03-12T01:14:02.039Z,5.60
2019-03-12T01:16:42.368Z,5.60
2019-03-12T01:19:22.268Z,5.50
2019-03-12T01:22:02.400Z,5.50
2019-03-12T01:24:42.453Z,5.50
2019-03-12T01:27:22.661Z,5.60
2019-03-12T01:30:03.370Z,5.50
2019-03-12T01:32:43.297Z,5.40
2019-03-12T01:35:23.125Z,5.70
2019-03-12T01:38:03.224Z,5.70
2019-03-12T01:40:43.329Z,5.40
2019-03-12T01:43:25.632Z,5.30
2019-03-12T01:46:05.894Z,5.30
2019-03-12T01:48:46.182Z,5.00
2019-03-12T01:51:26.351Z,5.10
2019-03-12T01:53:55.245Z,5.10
2019-03-12T01:56:22.873Z,5.10
2019-03-12T01:58:50.467Z,5.10
2019-03-12T02:01:18.250Z,5.40
2019-03-12T02:03:46.036Z,5.30
2019-03-12T02:06:13.700Z,5.30
2019-03-12T02:08:41.324Z,5.20
2019-03-12T02:11:28.387Z,5.20
2019-03-12T02:14:34.913Z,5.10
2019-03-12T02:17:14.678Z,5.20
2019-03-12T02:19:54.887Z,5.20
2019-03-12T02:22:35.116Z,5.20
2019-03-12T02:25:15.151Z,5.10
2019-03-12T02:27:55.319Z,5.00
2019-03-12T02:30:35.511Z,5.60
2019-03-12T02:33:15.832Z,5.20
2019-03-12T02:35:55.709Z,5.20
2019-03-12T02:38:36.074Z,5.40
2019-03-12T02:41:15.998Z,5.30
2019-03-12T02:43:56.245Z,5.30
2019-03-12T02:46:36.345Z,5.30
2019-03-12T02:49:16.442Z,5.10
2019-03-12T02:51:56.405Z,5.10
2019-03-12T02:54:36.680Z,5.20
2019-03-12T02:57:16.744Z,5.00
2019-03-12T02:59:44.840Z,5.10
2019-03-12T03:02:31.864Z,5.10
2019-03-12T03:08:10.680Z,5.10
2019-03-12T03:10:50.686Z,5.10
2019-03-12T03:13:31.604Z,5.10
2019-03-12T03:16:12.034Z,5.10
2019-03-12T03:18:52.000Z,5.10
2019-03-12T03:21:32.085Z,5.00
2019-03-12T03:24:12.406Z,5.10
2019-03-12T03:26:52.348Z,5.00
2019-03-12T03:29:32.639Z,5.00
2019-03-12T03:32:12.786Z,5.00
2019-03-12T03:34:52.962Z,4.90
2019-03-12T03:37:33.139Z,5.20
2019-03-12T03:40:13.232Z,5.00
2019-03-12T03:42:53.626Z,5.10
2019-03-12T03:45:33.763Z,5.10
2019-03-12T03:48:14.054Z,5.10
2019-03-12T03:50:54.235Z,5.10
2019-03-12T03:53:34.355Z,5.20
2019-03-12T03:56:14.695Z,5.00
2019-03-12T03:58:55.113Z,5.10
2019-03-12T04:01:35.210Z,5.10
2019-03-12T04:04:15.177Z,5.10
2019-03-12T04:06:55.151Z,5.10
2019-03-12T04:09:35.233Z,5.20
2019-03-12T04:12:15.349Z,5.00
2019-03-12T04:17:53.762Z,5.00
2019-03-12T04:20:33.979Z,5.00
2019-03-12T04:23:16.075Z,5.00
2019-03-12T04:25:54.161Z,5.10
2019-03-12T04:28:41.187Z,4.70
2019-03-12T04:31:20.946Z,5.20
2019-03-12T04:34:00.910Z,4.70
2019-03-12T04:36:41.191Z,4.90
2019-03-12T04:39:21.182Z,4.90
2019-03-12T04:42:01.458Z,5.10
2019-03-12T04:44:41.551Z,5.00
2019-03-12T04:47:21.538Z,4.70
2019-03-12T04:53:00.214Z,4.70
2019-03-12T04:55:40.259Z,4.70
2019-03-12T04:58:20.533Z,4.50
2019-03-12T05:01:02.264Z,4.50
2019-03-12T05:03:42.895Z,4.70
2019-03-12T05:06:23.098Z,4.60
2019-03-12T05:09:04.810Z,4.70
2019-03-12T05:11:44.669Z,4.50
2019-03-12T05:14:24.515Z,4.40
2019-03-12T05:17:04.604Z,4.50
2019-03-12T05:19:44.634Z,4.60
2019-03-12T05:22:24.898Z,4.50
2019-03-12T05:25:04.919Z,4.40
2019-03-12T05:27:47.496Z,4.40
2019-03-12T05:30:27.237Z,4.40
2019-03-12T05:33:07.394Z,4.40
2019-03-12T05:35:47.433Z,4.30
2019-03-12T05:38:27.572Z,4.20
2019-03-12T05:41:07.752Z,4.30
2019-03-12T05:43:47.648Z,4.20
2019-03-12T05:46:27.926Z,4.30
2019-03-12T05:49:07.821Z,4.00
2019-03-12T05:51:48.065Z,4.30
2019-03-12T05:54:28.393Z,4.20
2019-03-12T05:57:08.517Z,4.20
2019-03-12T05:59:48.805Z,4.00
2019-03-12T06:02:29.037Z,4.10
2019-03-12T06:05:09.031Z,4.00
2019-03-12T06:07:49.431Z,4.10
2019-03-12T06:10:29.557Z,3.90
2019-03-12T06:13:09.857Z,4.10
2019-03-12T06:15:53.031Z,4.00
2019-03-12T06:18:32.273Z,4.00
2019-03-12T06:21:12.610Z,4.00
2019-03-12T06:23:52.654Z,4.10
2019-03-12T06:26:32.981Z,4.20
2019-03-12T06:29:13.393Z,4.20
2019-03-12T06:32:12.873Z,4.20
2019-03-12T06:35:06.737Z,4.30
2019-03-12T06:38:09.373Z,4.30
2019-03-12T06:41:00.005Z,4.50
2019-03-12T06:43:49.439Z,4.60
2019-03-12T06:46:48.530Z,4.50
2019-03-12T06:49:38.285Z,4.70
2019-03-12T06:52:37.843Z,4.70
2019-03-12T06:55:36.977Z,4.70
2019-03-12T06:58:36.069Z,4.90
2019-03-12T07:01:35.550Z,4.90
2019-03-12T07:04:34.758Z,5.00
2019-03-12T07:07:34.170Z,5.10
2019-03-12T07:10:36.717Z,5.10
2019-03-12T07:13:36.039Z,5.30
2019-03-12T07:16:38.240Z,5.40
2019-03-12T07:19:30.081Z,5.60
2019-03-12T07:22:15.188Z,5.90
2019-03-12T07:25:03.273Z,6.10
2019-03-12T07:27:48.321Z,6.50
2019-03-12T07:30:50.545Z,6.80
2019-03-12T07:33:49.930Z,7.20
2019-03-12T07:36:49.235Z,7.60
2019-03-12T07:39:39.939Z,8.10
2019-03-12T07:42:33.923Z,8.50
2019-03-12T07:45:33.235Z,9.40
2019-03-12T07:48:30.226Z,10.70
2019-03-12T07:51:27.290Z,11.20
2019-03-12T07:54:23.341Z,11.60
2019-03-12T07:57:22.808Z,12.50
2019-03-12T08:00:22.438Z,12.80
2019-03-12T08:03:21.506Z,12.80
2019-03-12T08:06:08.659Z,12.90
2019-03-12T08:09:15.145Z,12.80
2019-03-12T08:12:21.786Z,12.80
2019-03-12T08:15:23.353Z,12.80
2019-03-12T08:18:22.877Z,12.90
2019-03-12T08:21:22.869Z,12.90
2019-03-12T08:24:22.018Z,13.10
2019-03-12T08:27:15.206Z,12.90
2019-03-12T08:30:14.457Z,13.30
2019-03-12T08:33:17.659Z,13.40
2019-03-12T08:36:19.674Z,14.20
2019-03-12T08:39:07.849Z,14.70
2019-03-12T08:42:10.245Z,14.20
2019-03-12T08:45:05.757Z,14.10
2019-03-12T08:48:04.839Z,14.10
2019-03-12T08:51:05.333Z,13.70
2019-03-12T08:54:05.235Z,13.50
2019-03-12T08:56:48.753Z,13.70
2019-03-12T08:59:56.639Z,14.30
2019-03-12T09:02:51.258Z,14.30
2019-03-12T09:05:51.024Z,14.30
2019-03-12T09:08:38.503Z,14.90
2019-03-12T09:11:44.962Z,14.70
2019-03-12T09:14:51.009Z,14.80
2019-03-12T09:17:50.148Z,14.60
2019-03-12T09:20:40.165Z,14.70
2019-03-12T09:23:39.414Z,14.70
2019-03-12T09:26:41.274Z,15.10
2019-03-12T09:29:40.681Z,15.10
2019-03-12T09:32:39.946Z,15.60
2019-03-12T09:35:26.876Z,15.30
2019-03-12T09:38:26.333Z,15.60
2019-03-12T09:41:25.575Z,15.20
2019-03-12T09:44:25.104Z,15.80
2019-03-12T09:47:27.102Z,16.20
2019-03-12T09:50:19.366Z,15.70
2019-03-12T09:53:15.718Z,15.50
2019-03-12T09:56:11.215Z,15.40
2019-03-12T09:59:10.380Z,15.60
2019-03-12T10:02:12.703Z,15.60
2019-03-12T10:05:04.964Z,16.10
2019-03-12T10:08:04.162Z,16.00
2019-03-12T10:10:55.947Z,16.40
2019-03-12T10:13:55.331Z,16.60
2019-03-12T10:16:54.971Z,16.30
2019-03-12T10:19:54.948Z,16.30
2019-03-12T10:22:42.727Z,16.30
2019-03-12T10:25:42.577Z,16.50
2019-03-12T10:28:44.956Z,16.50
2019-03-12T10:31:44.031Z,16.80
2019-03-12T10:34:43.297Z,16.50
2019-03-12T10:37:38.657Z,16.50
2019-03-12T10:40:40.859Z,16.30
2019-03-12T10:43:28.981Z,16.20
2019-03-12T10:46:28.476Z,16.90
2019-03-12T10:49:08.352Z,16.90
2019-03-12T10:51:48.494Z,16.70
2019-03-12T10:54:28.635Z,16.80
2019-03-12T10:57:08.885Z,17.40
2019-03-12T10:59:49.977Z,17.50
2019-03-12T11:02:30.081Z,17.30
2019-03-12T11:05:10.292Z,17.30
2019-03-12T11:07:50.212Z,17.90
2019-03-12T11:10:30.456Z,17.60
2019-03-12T11:13:10.657Z,17.70
2019-03-12T11:15:50.953Z,17.60
2019-03-12T11:18:30.861Z,17.90
2019-03-12T11:21:11.002Z,17.80
2019-03-12T11:23:50.931Z,18.20
2019-03-12T11:26:30.969Z,18.00
2019-03-12T11:29:11.313Z,17.90
2019-03-12T11:31:52.323Z,17.90
2019-03-12T11:34:32.435Z,18.30
2019-03-12T11:37:12.338Z,18.90
2019-03-12T11:39:52.600Z,19.50
2019-03-12T11:42:32.754Z,19.40
2019-03-12T11:45:16.902Z,19.20
2019-03-12T11:47:55.102Z,19.90
2019-03-12T11:50:22.753Z,20.20
2019-03-12T11:53:09.798Z,19.90
2019-03-12T11:55:49.391Z,20.00
2019-03-12T11:58:29.427Z,19.70
2019-03-12T12:01:09.718Z,20.00
2019-03-12T12:03:49.777Z,20.30
2019-03-12T12:06:30.073Z,20.90
2019-03-12T12:09:10.296Z,21.20
2019-03-12T12:11:50.513Z,21.20
2019-03-12T12:14:30.525Z,21.10
2019-03-12T12:17:10.692Z,21.00
2019-03-12T12:19:50.906Z,21.60
2019-03-12T12:22:31.042Z,21.40
2019-03-12T12:25:11.158Z,21.40
2019-03-12T12:27:51.405Z,21.50
2019-03-12T12:30:31.610Z,21.50
2019-03-12T12:33:11.518Z,21.70
2019-03-12T12:35:51.871Z,21.60
2019-03-12T12:38:32.012Z,21.60
2019-03-12T12:41:12.261Z,21.50
2019-03-12T12:43:52.505Z,21.50
2019-03-12T12:46:32.494Z,21.40
2019-03-12T12:49:12.502Z,22.00
2019-03-12T12:51:52.669Z,22.10
2019-03-12T12:54:33.105Z,22.30
2019-03-12T12:57:01.009Z,22.00
2019-03-12T12:59:28.838Z,21.80
2019-03-12T13:01:56.536Z,21.60
2019-03-12T13:04:24.201Z,22.30
2019-03-12T13:06:51.917Z,22.00
2019-03-12T13:09:19.509Z,21.20
2019-03-12T13:11:47.118Z,20.60
2019-03-12T13:14:14.753Z,20.40
2019-03-12T13:16:42.510Z,19.90
2019-03-12T13:19:10.118Z,19.90
2019-03-12T13:21:59.579Z,19.60
2019-03-12T13:24:46.598Z,19.50
2019-03-12T13:27:26.779Z,19.10
2019-03-12T13:30:06.741Z,18.80
2019-03-12T13:35:45.753Z,18.60
2019-03-12T13:38:27.315Z,18.70
2019-03-12T13:41:07.128Z,19.10
2019-03-12T13:43:47.511Z,19.80
2019-03-12T13:46:27.642Z,20.00
2019-03-12T13:49:07.935Z,20.10
2019-03-12T13:51:48.366Z,20.00
2019-03-12T13:54:29.070Z,19.80
2019-03-12T13:57:09.265Z,19.50
2019-03-12T13:59:50.394Z,19.00
2019-03-12T14:02:30.481Z,18.40
2019-03-12T14:05:10.667Z,17.80
2019-03-12T14:07:50.977Z,17.50
2019-03-12T14:10:30.782Z,17.30
2019-03-12T14:13:11.014Z,16.90
2019-03-12T14:15:51.258Z,17.20
2019-03-12T14:18:31.329Z,17.00
2019-03-12T14:21:11.481Z,17.10
2019-03-12T14:23:51.768Z,17.30
2019-03-12T14:26:31.772Z,17.20
2019-03-12T14:29:11.769Z,17.10
2019-03-12T14:31:51.893Z,16.50
2019-03-12T14:37:35.974Z,16.00
2019-03-12T14:40:15.584Z,15.60
2019-03-12T14:42:55.690Z,15.20
2019-03-12T14:45:35.513Z,15.00
2019-03-12T14:48:15.690Z,14.70
2019-03-12T14:50:56.254Z,14.70
2019-03-12T14:53:36.270Z,14.40
2019-03-12T14:56:16.375Z,14.20
2019-03-12T14:58:56.645Z,14.10
2019-03-12T15:01:36.765Z,14.30
2019-03-12T15:04:16.908Z,14.30
2019-03-12T15:06:56.834Z,14.50
2019-03-12T15:09:36.881Z,14.50
2019-03-12T15:12:17.191Z,14.30
2019-03-12T15:14:58.103Z,14.20
2019-03-12T15:17:39.166Z,14.10
2019-03-12T15:20:17.346Z,14.00
2019-03-12T15:23:04.740Z,13.80
2019-03-12T15:25:32.389Z,13.90
2019-03-12T15:28:19.427Z,14.00
2019-03-12T15:33:58.546Z,13.80
2019-03-12T15:36:38.310Z,13.90
2019-03-12T15:39:18.105Z,13.90
2019-03-12T15:41:58.182Z,14.00
2019-03-12T15:44:38.869Z,14.00
2019-03-12T15:47:18.686Z,14.00
2019-03-12T15:49:58.646Z,14.20
2019-03-12T15:52:38.681Z,13.90
2019-03-12T15:55:18.953Z,14.10
2019-03-12T15:57:58.770Z,14.10
2019-03-12T16:00:39.190Z,14.00
2019-03-12T16:03:19.056Z,13.90
2019-03-12T16:05:59.081Z,13.80
2019-03-12T16:08:39.534Z,13.50
2019-03-12T16:11:19.420Z,13.50
2019-03-12T16:13:59.548Z,13.80
2019-03-12T16:16:39.605Z,13.50
2019-03-12T16:19:19.637Z,13.50
2019-03-12T16:21:59.920Z,13.20
2019-03-12T16:24:39.887Z,13.60
2019-03-12T16:27:20.669Z,13.30
2019-03-12T16:30:00.599Z,13.40
2019-03-12T16:32:40.403Z,13.40
2019-03-12T16:35:20.624Z,13.20
2019-03-12T16:38:00.691Z,13.00
2019-03-12T16:40:40.837Z,13.10
2019-03-12T16:43:22.198Z,13.20
2019-03-12T16:46:02.011Z,13.10
2019-03-12T16:48:42.265Z,13.00
2019-03-12T16:51:22.481Z,12.80
2019-03-12T16:54:05.266Z,12.80
2019-03-12T16:56:45.779Z,12.70
2019-03-12T16:59:25.984Z,12.60
2019-03-12T17:02:06.143Z,12.60
2019-03-12T17:04:46.174Z,12.50
2019-03-12T17:07:26.907Z,12.40
2019-03-12T17:10:07.535Z,12.40
2019-03-12T17:12:47.607Z,12.00
2019-03-12T17:18:40.050Z,11.80
2019-03-12T17:21:19.954Z,11.90
2019-03-12T17:24:00.155Z,11.60
2019-03-12T17:26:40.171Z,11.80
2019-03-12T17:29:20.374Z,11.70
2019-03-12T17:32:00.309Z,11.40
2019-03-12T17:34:40.465Z,11.70
2019-03-12T17:37:20.901Z,11.60
2019-03-12T17:40:00.810Z,11.40
2019-03-12T17:42:40.857Z,11.30
2019-03-12T17:45:20.788Z,11.10
2019-03-12T17:48:00.933Z,11.20
2019-03-12T17:50:41.041Z,11.10
2019-03-12T17:53:20.996Z,11.10
2019-03-12T17:56:01.187Z,10.80
2019-03-12T17:58:41.483Z,11.00
2019-03-12T18:01:29.303Z,10.80
2019-03-12T18:03:54.167Z,10.80
2019-03-12T18:06:40.083Z,10.70
2019-03-12T18:09:20.026Z,10.70
2019-03-12T18:12:00.805Z,10.60
2019-03-12T18:14:28.530Z,10.60
2019-03-12T18:17:15.610Z,10.60
2019-03-12T18:19:55.932Z,10.70
2019-03-12T18:22:38.841Z,10.50
2019-03-12T18:25:18.538Z,10.50
2019-03-12T18:27:59.141Z,10.40
2019-03-12T18:30:39.137Z,10.60
2019-03-12T18:33:19.295Z,10.10
2019-03-12T18:35:59.430Z,10.10
2019-03-12T18:38:40.009Z,9.90
2019-03-12T18:41:19.809Z,9.80
2019-03-12T18:43:59.860Z,9.80
2019-03-12T18:46:42.958Z,9.70
2019-03-12T18:49:21.980Z,9.60
2019-03-12T18:52:02.329Z,9.70
2019-03-12T18:54:42.558Z,9.50
2019-03-12T18:57:22.685Z,9.50
2019-03-12T19:00:02.956Z,9.30
2019-03-12T19:02:43.174Z,9.50
2019-03-12T19:05:23.579Z,9.30
2019-03-12T19:08:03.856Z,9.30
2019-03-12T19:10:43.972Z,9.30
2019-03-12T19:13:24.281Z,9.40
2019-03-12T19:16:04.464Z,9.30
2019-03-12T19:18:45.398Z,9.50
2019-03-12T19:21:25.951Z,9.70
2019-03-12T19:24:05.823Z,9.60
2019-03-12T19:26:46.320Z,9.80
2019-03-12T19:29:26.723Z,9.60
2019-03-12T19:35:07.614Z,9.50
2019-03-12T19:37:47.609Z,9.30
2019-03-12T19:40:29.955Z,9.50
2019-03-12T19:43:09.983Z,9.50
2019-03-12T19:45:50.201Z,9.40
2019-03-12T19:48:30.214Z,9.70
2019-03-12T19:51:10.341Z,10.10
2019-03-12T19:53:51.282Z,10.10
2019-03-12T19:56:31.368Z,9.90
2019-03-12T19:59:12.370Z,9.70
2019-03-12T20:01:52.476Z,9.70
2019-03-12T20:04:32.601Z,9.70
2019-03-12T20:07:13.090Z,9.50
2019-03-12T20:09:53.624Z,9.60
2019-03-12T20:12:33.451Z,9.50
2019-03-12T20:15:13.509Z,9.50
2019-03-12T20:17:53.777Z,9.60
2019-03-12T20:20:34.168Z,9.50
2019-03-12T20:23:14.232Z,9.40
2019-03-12T20:25:54.274Z,9.50
2019-03-12T20:28:34.646Z,9.40
2019-03-12T20:31:14.855Z,9.30
2019-03-12T20:33:55.243Z,9.40
2019-03-12T20:39:34.298Z,9.40
2019-03-12T20:42:14.376Z,9.50
2019-03-12T20:44:54.529Z,9.40
2019-03-12T20:47:34.647Z,9.40
2019-03-12T20:50:14.825Z,9.60
2019-03-12T20:52:54.890Z,9.80
2019-03-12T20:55:35.291Z,9.90
2019-03-12T21:01:28.584Z,9.80
2019-03-12T21:04:08.419Z,9.80
2019-03-12T21:06:48.583Z,9.90
2019-03-12T21:09:28.779Z,9.90
2019-03-12T21:12:08.675Z,10.10
2019-03-12T21:14:48.860Z,10.20
2019-03-12T21:17:29.652Z,10.00
2019-03-12T21:20:09.377Z,10.10
2019-03-12T21:22:49.586Z,10.10
2019-03-12T21:25:29.492Z,10.10
2019-03-12T21:28:09.758Z,10.20
2019-03-12T21:30:51.491Z,10.30
2019-03-12T21:33:31.444Z,10.50
2019-03-12T21:36:14.467Z,10.50
2019-03-12T21:38:55.089Z,10.70
2019-03-12T21:41:35.347Z,11.30
2019-03-12T21:44:15.189Z,11.00
2019-03-12T21:46:55.608Z,11.10
2019-03-12T21:49:35.478Z,10.90
2019-03-12T21:52:15.627Z,10.60
2019-03-12T21:54:56.031Z,10.50
2019-03-12T21:57:36.031Z,10.60
2019-03-12T22:00:16.100Z,10.30
2019-03-12T22:02:56.528Z,10.20
2019-03-12T22:05:36.411Z,10.10
2019-03-12T22:08:16.475Z,10.00
2019-03-12T22:10:56.680Z,10.10
2019-03-12T22:13:24.390Z,9.80
2019-03-12T22:16:11.713Z,9.80
2019-03-12T22:18:51.846Z,9.70
2019-03-12T22:24:27.987Z,9.50
2019-03-12T22:27:07.870Z,9.30
2019-03-12T22:29:47.844Z,9.30
2019-03-12T22:32:28.007Z,9.50
2019-03-12T22:35:08.208Z,9.20
2019-03-12T22:37:48.387Z,9.20
2019-03-12T22:40:28.359Z,9.10
2019-03-12T22:43:08.696Z,8.90
2019-03-12T22:45:48.750Z,9.00
2019-03-12T22:48:29.176Z,9.10
2019-03-12T22:51:09.342Z,9.20
2019-03-12T22:53:49.913Z,9.00
2019-03-12T22:56:29.868Z,9.00
2019-03-12T22:59:09.731Z,8.90
2019-03-12T23:01:49.874Z,9.00
2019-03-12T23:04:30.057Z,8.90
2019-03-12T23:07:10.234Z,8.90
2019-03-12T23:09:50.695Z,9.00
2019-03-12T23:12:30.702Z,8.80
2019-03-12T23:15:10.887Z,8.90
2019-03-12T23:17:51.131Z,8.80
2019-03-12T23:20:31.110Z,8.70
2019-03-12T23:23:11.151Z,8.60
2019-03-12T23:25:51.393Z,8.60
2019-03-12T23:28:31.427Z,8.50
2019-03-12T23:31:11.950Z,8.80
2019-03-12T23:33:52.074Z,8.70
2019-03-12T23:36:33.173Z,9.00
2019-03-12T23:39:12.837Z,8.90
2019-03-12T23:41:52.917Z,9.20
2019-03-12T23:44:33.283Z,9.00
2019-03-12T23:47:13.473Z,9.10
2019-03-12T23:49:53.638Z,9.10
2019-03-12T23:52:33.855Z,9.10
2019-03-12T23:55:14.062Z,9.20
2019-03-12T23:57:54.045Z,9.10
